createdAt,value
2018-08-23T00:00:48.619Z,8.00
2018-08-23T00:01:48.641Z,4.00
2018-08-23T00:02:48.865Z,4.00
2018-08-23T00:03:48.694Z,4.00
2018-08-23T00:04:48.713Z,4.00
2018-08-23T00:05:48.740Z,4.00
2018-08-23T00:06:48.766Z,4.00
2018-08-23T00:07:48.787Z,4.00
2018-08-23T00:08:48.839Z,4.00
2018-08-23T00:09:48.839Z,4.00
2018-08-23T00:10:48.860Z,4.00
2018-08-23T00:11:48.886Z,4.00
2018-08-23T00:12:48.911Z,4.00
2018-08-23T00:13:48.939Z,4.00
2018-08-23T00:14:48.960Z,4.00
2018-08-23T00:15:48.981Z,4.00
2018-08-23T00:16:49.076Z,4.00
2018-08-23T00:17:49.030Z,4.00
2018-08-23T00:18:49.055Z,4.00
2018-08-23T00:19:49.079Z,4.00
2018-08-23T00:20:49.106Z,4.00
2018-08-23T00:21:49.129Z,4.00
2018-08-23T00:22:49.152Z,4.00
2018-08-23T00:23:49.178Z,4.00
2018-08-23T00:24:49.201Z,4.00
2018-08-23T00:25:49.227Z,4.00
2018-08-23T00:26:49.249Z,4.00
2018-08-23T00:27:49.277Z,4.00
2018-08-23T00:28:49.298Z,4.00
2018-08-23T00:29:49.321Z,4.00
2018-08-23T00:30:49.345Z,4.00
2018-08-23T00:31:49.371Z,4.00
2018-08-23T00:32:49.397Z,4.00
2018-08-23T00:33:49.420Z,4.00
2018-08-23T00:34:49.446Z,4.00
2018-08-23T00:35:49.467Z,4.00
2018-08-23T00:36:49.497Z,4.00
2018-08-23T00:37:49.516Z,4.00
2018-08-23T00:38:49.539Z,4.00
2018-08-23T00:39:49.564Z,4.00
2018-08-23T00:40:49.591Z,4.00
2018-08-23T00:41:49.615Z,4.00
2018-08-23T00:42:49.638Z,4.00
2018-08-23T00:43:49.660Z,4.00
2018-08-23T00:44:49.688Z,4.00
2018-08-23T00:45:49.710Z,4.00
2018-08-23T00:46:49.733Z,4.00
2018-08-23T00:47:49.768Z,4.00
2018-08-23T00:48:49.781Z,4.00
2018-08-23T00:49:49.807Z,4.00
2018-08-23T00:50:49.830Z,4.00
2018-08-23T00:51:49.853Z,4.00
2018-08-23T00:52:49.879Z,4.00
2018-08-23T00:53:49.905Z,4.00
2018-08-23T00:54:49.928Z,4.00
2018-08-23T00:55:49.950Z,4.00
2018-08-23T00:56:49.972Z,4.00
2018-08-23T00:57:49.997Z,4.00
2018-08-23T00:58:50.024Z,4.00
2018-08-23T00:59:50.051Z,4.00
2018-08-23T01:00:50.077Z,4.00
2018-08-23T01:01:50.093Z,4.00
2018-08-23T01:02:50.119Z,4.00
2018-08-23T01:03:50.162Z,4.00
2018-08-23T01:04:50.165Z,4.00
2018-08-23T01:05:50.191Z,4.00
2018-08-23T01:06:50.215Z,4.00
2018-08-23T01:07:50.236Z,4.00
2018-08-23T01:08:50.263Z,4.00
2018-08-23T01:09:50.283Z,4.00
2018-08-23T01:10:50.307Z,4.00
2018-08-23T01:11:50.331Z,4.00
2018-08-23T01:12:50.360Z,4.00
2018-08-23T01:13:50.381Z,4.00
2018-08-23T01:14:50.405Z,4.00
2018-08-23T01:15:50.429Z,4.00
2018-08-23T01:16:50.452Z,4.00
2018-08-23T01:17:50.477Z,4.00
2018-08-23T01:18:50.501Z,4.00
2018-08-23T01:19:50.525Z,4.00
2018-08-23T01:20:50.553Z,4.00
2018-08-23T01:21:50.572Z,4.00
2018-08-23T01:22:50.594Z,4.00
2018-08-23T01:23:50.619Z,4.00
2018-08-23T01:24:50.642Z,4.00
2018-08-23T01:25:50.667Z,4.00
2018-08-23T01:26:50.691Z,4.00
2018-08-23T01:27:50.715Z,4.00
2018-08-23T01:28:50.740Z,4.00
2018-08-23T01:29:50.761Z,4.00
2018-08-23T01:30:50.807Z,4.00
2018-08-23T01:31:50.810Z,4.00
2018-08-23T01:32:50.831Z,4.00
2018-08-23T01:33:50.854Z,4.00
2018-08-23T01:34:50.879Z,4.00
2018-08-23T01:35:50.904Z,4.00
2018-08-23T01:36:50.931Z,4.00
2018-08-23T01:37:50.951Z,4.00
2018-08-23T01:38:50.988Z,4.00
2018-08-23T01:39:50.997Z,4.00
2018-08-23T01:40:51.022Z,4.00
2018-08-23T01:41:51.044Z,4.00
2018-08-23T01:42:51.067Z,4.00
2018-08-23T01:43:51.092Z,4.00
2018-08-23T01:44:51.113Z,4.00
2018-08-23T01:45:51.139Z,4.00
2018-08-23T01:46:51.163Z,4.00
2018-08-23T01:47:51.185Z,4.00
2018-08-23T01:48:51.209Z,4.00
2018-08-23T01:49:51.231Z,4.00
2018-08-23T01:50:51.255Z,4.00
2018-08-23T01:51:51.278Z,4.00
2018-08-23T01:52:51.301Z,4.00
2018-08-23T01:53:51.328Z,4.00
2018-08-23T01:54:51.349Z,4.00
2018-08-23T01:55:51.372Z,4.00
2018-08-23T01:56:51.403Z,4.00
2018-08-23T01:57:51.419Z,4.00
2018-08-23T01:58:51.446Z,4.00
2018-08-23T01:59:51.470Z,4.00
2018-08-23T02:00:51.491Z,4.00
2018-08-23T02:01:51.516Z,4.00
2018-08-23T02:02:51.537Z,4.00
2018-08-23T02:03:51.563Z,4.00
2018-08-23T02:04:51.586Z,4.00
2018-08-23T02:05:51.607Z,4.00
2018-08-23T02:06:51.632Z,4.00
2018-08-23T02:07:51.654Z,4.00
2018-08-23T02:08:51.677Z,4.00
2018-08-23T02:09:51.702Z,4.00
2018-08-23T02:10:51.727Z,4.00
2018-08-23T02:11:51.750Z,4.00
2018-08-23T02:12:51.773Z,4.00
2018-08-23T02:13:51.794Z,4.00
2018-08-23T02:14:51.821Z,4.00
2018-08-23T02:15:51.846Z,4.00
2018-08-23T02:16:51.866Z,4.00
2018-08-23T02:17:51.893Z,4.00
2018-08-23T02:18:51.913Z,4.00
2018-08-23T02:19:51.935Z,4.00
2018-08-23T02:20:51.957Z,4.00
2018-08-23T02:21:51.981Z,4.00
2018-08-23T02:22:52.008Z,4.00
2018-08-23T02:23:52.033Z,4.00
2018-08-23T02:24:52.051Z,4.00
2018-08-23T02:25:52.076Z,4.00
2018-08-23T02:26:52.101Z,4.00
2018-08-23T02:27:52.124Z,4.00
2018-08-23T02:28:52.145Z,4.00
2018-08-23T02:29:52.169Z,4.00
2018-08-23T02:30:52.193Z,4.00
2018-08-23T02:31:52.217Z,4.00
2018-08-23T02:32:52.240Z,4.00
2018-08-23T02:33:52.260Z,4.00
2018-08-23T02:34:52.436Z,4.00
2018-08-23T02:35:52.310Z,4.00
2018-08-23T02:36:52.333Z,4.00
2018-08-23T02:37:52.356Z,4.00
2018-08-23T02:38:52.377Z,4.00
2018-08-23T02:39:52.401Z,4.00
2018-08-23T02:40:52.431Z,4.00
2018-08-23T02:41:52.454Z,4.00
2018-08-23T02:42:52.476Z,4.00
2018-08-23T02:43:52.502Z,4.00
2018-08-23T02:44:52.521Z,4.00
2018-08-23T02:45:52.545Z,4.00
2018-08-23T02:46:52.565Z,4.00
2018-08-23T02:47:52.597Z,4.00
2018-08-23T02:48:52.614Z,4.00
2018-08-23T02:49:52.635Z,4.00
2018-08-23T02:50:52.661Z,4.00
2018-08-23T02:51:52.681Z,4.00
2018-08-23T02:52:52.706Z,4.00
2018-08-23T02:53:52.730Z,4.00
2018-08-23T02:54:52.751Z,4.00
2018-08-23T02:55:52.782Z,4.00
2018-08-23T02:56:52.797Z,4.00
2018-08-23T02:57:52.820Z,4.00
2018-08-23T02:58:52.847Z,4.00
2018-08-23T02:59:52.871Z,4.00
2018-08-23T03:00:52.895Z,4.00
2018-08-23T03:01:52.916Z,4.00
2018-08-23T03:02:52.937Z,4.00
2018-08-23T03:03:52.960Z,4.00
2018-08-23T03:04:52.983Z,4.00
2018-08-23T03:05:53.012Z,4.00
2018-08-23T03:06:53.032Z,4.00
2018-08-23T03:07:53.057Z,4.00
2018-08-23T03:08:53.078Z,4.00
2018-08-23T03:09:53.101Z,4.00
2018-08-23T03:10:53.125Z,4.00
2018-08-23T03:11:53.151Z,4.00
2018-08-23T03:12:53.171Z,4.00
2018-08-23T03:13:53.199Z,8.00
2018-08-23T03:14:53.216Z,4.00
2018-08-23T03:15:53.242Z,4.00
2018-08-23T03:16:53.264Z,4.00
2018-08-23T03:17:53.286Z,4.00
2018-08-23T03:18:53.311Z,4.00
2018-08-23T03:19:53.335Z,4.00
2018-08-23T03:20:53.355Z,4.00
2018-08-23T03:21:53.377Z,4.00
2018-08-23T03:22:53.406Z,4.00
2018-08-23T03:23:53.424Z,4.00
2018-08-23T03:24:53.446Z,4.00
2018-08-23T03:25:53.472Z,4.00
2018-08-23T03:26:53.500Z,4.00
2018-08-23T03:27:53.517Z,4.00
2018-08-23T03:28:53.541Z,4.00
2018-08-23T03:29:53.564Z,4.00
2018-08-23T03:30:53.586Z,4.00
2018-08-23T03:31:53.609Z,4.00
2018-08-23T03:32:53.632Z,4.00
2018-08-23T03:33:53.656Z,4.00
2018-08-23T03:34:53.683Z,4.00
2018-08-23T03:35:53.701Z,4.00
2018-08-23T03:36:53.725Z,4.00
2018-08-23T03:37:53.750Z,4.00
2018-08-23T03:38:53.770Z,4.00
2018-08-23T03:39:53.797Z,4.00
2018-08-23T03:40:53.816Z,4.00
2018-08-23T03:41:53.839Z,4.00
2018-08-23T03:42:53.864Z,4.00
2018-08-23T03:43:53.889Z,4.00
2018-08-23T03:44:53.911Z,4.00
2018-08-23T03:45:53.934Z,4.00
2018-08-23T03:46:53.958Z,4.00
2018-08-23T03:47:53.980Z,4.00
2018-08-23T03:48:54.001Z,4.00
2018-08-23T03:49:54.028Z,4.00
2018-08-23T03:50:54.051Z,8.00
2018-08-23T03:51:54.073Z,8.00
2018-08-23T03:52:54.092Z,8.00
2018-08-23T03:53:54.118Z,8.00
2018-08-23T03:54:54.142Z,8.00
2018-08-23T03:55:54.168Z,4.00
2018-08-23T03:56:54.187Z,4.00
2018-08-23T03:57:54.209Z,8.00
2018-08-23T03:58:54.231Z,8.00
2018-08-23T03:59:54.256Z,4.00
2018-08-23T04:00:54.277Z,8.00
2018-08-23T04:01:54.301Z,8.00
2018-08-23T04:02:54.325Z,8.00
2018-08-23T04:03:54.353Z,12.00
2018-08-23T04:04:54.372Z,12.00
2018-08-23T04:05:54.446Z,12.00
2018-08-23T04:06:54.415Z,16.00
2018-08-23T04:07:54.438Z,16.00
2018-08-23T04:08:54.461Z,16.00
2018-08-23T04:09:54.483Z,12.00
2018-08-23T04:10:54.505Z,16.00
2018-08-23T04:11:54.531Z,20.00
2018-08-23T04:12:54.551Z,24.00
2018-08-23T04:13:54.577Z,24.00
2018-08-23T04:14:54.643Z,24.00
2018-08-23T04:15:54.622Z,28.00
2018-08-23T04:16:54.642Z,32.00
2018-08-23T04:17:54.665Z,40.00
2018-08-23T04:18:54.692Z,44.00
2018-08-23T04:19:54.712Z,48.00
2018-08-23T04:20:54.736Z,52.00
2018-08-23T04:21:54.757Z,60.00
2018-08-23T04:22:54.925Z,64.00
2018-08-23T04:23:54.803Z,72.00
2018-08-23T04:24:54.828Z,76.00
2018-08-23T04:25:54.848Z,84.00
2018-08-23T04:26:54.871Z,88.00
2018-08-23T04:27:54.898Z,96.00
2018-08-23T04:28:54.917Z,104.00
2018-08-23T04:29:54.939Z,112.00
2018-08-23T04:30:54.964Z,124.00
2018-08-23T04:31:54.988Z,132.00
2018-08-23T04:32:55.012Z,140.00
2018-08-23T04:33:55.033Z,152.00
2018-08-23T04:34:55.055Z,160.00
2018-08-23T04:35:55.082Z,164.00
2018-08-23T04:36:55.101Z,172.00
2018-08-23T04:37:55.126Z,184.00
2018-08-23T04:38:55.146Z,196.00
2018-08-23T04:39:55.170Z,208.00
2018-08-23T04:40:55.191Z,216.00
2018-08-23T04:41:55.216Z,228.00
2018-08-23T04:42:55.240Z,240.00
2018-08-23T04:43:55.262Z,252.00
2018-08-23T04:44:55.288Z,264.00
2018-08-23T04:45:55.308Z,280.00
2018-08-23T04:46:55.330Z,288.00
2018-08-23T04:47:55.353Z,304.00
2018-08-23T04:48:55.379Z,320.00
2018-08-23T04:49:55.398Z,336.00
2018-08-23T04:50:55.423Z,356.00
2018-08-23T04:51:55.451Z,372.00
2018-08-23T04:52:55.468Z,392.00
2018-08-23T04:53:55.491Z,408.00
2018-08-23T04:54:55.512Z,428.00
2018-08-23T04:55:55.536Z,448.00
2018-08-23T04:56:55.561Z,472.00
2018-08-23T04:57:55.585Z,492.00
2018-08-23T04:58:55.604Z,512.00
2018-08-23T04:59:55.632Z,536.00
2018-08-23T05:00:55.675Z,560.00
2018-08-23T05:01:55.673Z,584.00
2018-08-23T05:02:55.700Z,612.00
2018-08-23T05:03:55.733Z,636.00
2018-08-23T05:04:55.742Z,668.00
2018-08-23T05:05:55.765Z,700.00
2018-08-23T05:06:55.788Z,736.00
2018-08-23T05:07:55.811Z,768.00
2018-08-23T05:08:55.836Z,800.00
2018-08-23T05:09:55.868Z,836.00
2018-08-23T05:10:55.882Z,868.00
2018-08-23T05:11:55.907Z,900.00
2018-08-23T05:12:55.930Z,936.00
2018-08-23T05:13:55.986Z,972.00
2018-08-23T05:14:55.975Z,1008.00
2018-08-23T05:15:55.999Z,1040.00
2018-08-23T05:16:56.021Z,1072.00
2018-08-23T05:17:56.048Z,1104.00
2018-08-23T05:18:56.075Z,1136.00
2018-08-23T05:19:56.091Z,1176.00
2018-08-23T05:20:56.115Z,1212.00
2018-08-23T05:21:56.134Z,1256.00
2018-08-23T05:22:56.168Z,1292.00
2018-08-23T05:23:56.184Z,1324.00
2018-08-23T05:24:56.206Z,1352.00
2018-08-23T05:25:56.228Z,1392.00
2018-08-23T05:26:56.254Z,1420.00
2018-08-23T05:27:56.277Z,1452.00
2018-08-23T05:28:56.297Z,1496.00
2018-08-23T05:29:56.381Z,1540.00
2018-08-23T05:30:56.348Z,1584.00
2018-08-23T05:31:56.371Z,1620.00
2018-08-23T05:32:56.395Z,1640.00
2018-08-23T05:33:56.415Z,1648.00
2018-08-23T05:34:56.438Z,1664.00
2018-08-23T05:35:56.461Z,1680.00
2018-08-23T05:36:56.484Z,1704.00
2018-08-23T05:37:56.507Z,1728.00
2018-08-23T05:38:56.529Z,1752.00
2018-08-23T05:39:56.557Z,1796.00
2018-08-23T05:40:56.579Z,1820.00
2018-08-23T05:41:56.599Z,1848.00
2018-08-23T05:42:56.624Z,1872.00
2018-08-23T05:43:56.649Z,1904.00
2018-08-23T05:44:56.672Z,1920.00
2018-08-23T05:45:56.697Z,1948.00
2018-08-23T05:46:56.717Z,1988.00
2018-08-23T05:47:56.744Z,2036.00
2018-08-23T05:48:56.765Z,2052.00
2018-08-23T05:49:56.791Z,2076.00
2018-08-23T05:50:56.813Z,2100.00
2018-08-23T05:51:56.837Z,2120.00
2018-08-23T05:52:56.859Z,2136.00
2018-08-23T05:53:56.884Z,2144.00
2018-08-23T05:54:56.907Z,2172.00
2018-08-23T05:55:56.928Z,2176.00
2018-08-23T05:56:56.952Z,2176.00
2018-08-23T05:57:56.980Z,2188.00
2018-08-23T05:58:56.999Z,2208.00
2018-08-23T05:59:57.023Z,2240.00
2018-08-23T06:00:57.048Z,2264.00
2018-08-23T06:01:57.073Z,2292.00
2018-08-23T06:02:57.099Z,2300.00
2018-08-23T06:03:57.119Z,2300.00
2018-08-23T06:04:57.141Z,2304.00
2018-08-23T06:05:57.166Z,2320.00
2018-08-23T06:06:57.191Z,2372.00
2018-08-23T06:07:57.216Z,2420.00
2018-08-23T06:08:57.235Z,2480.00
2018-08-23T06:09:57.263Z,2532.00
2018-08-23T06:10:57.285Z,2556.00
2018-08-23T06:11:57.311Z,2596.00
2018-08-23T06:12:57.333Z,2640.00
2018-08-23T06:13:57.358Z,2652.00
2018-08-23T06:14:57.386Z,2692.00
2018-08-23T06:15:57.406Z,2744.00
2018-08-23T06:16:57.431Z,2760.00
2018-08-23T06:17:57.451Z,2804.00
2018-08-23T06:18:57.477Z,2848.00
2018-08-23T06:19:57.501Z,2936.00
2018-08-23T06:20:57.524Z,2972.00
2018-08-23T06:21:57.546Z,3028.00
2018-08-23T06:22:57.573Z,3116.00
2018-08-23T06:23:57.598Z,3176.00
2018-08-23T06:24:57.619Z,3252.00
2018-08-23T06:25:57.643Z,3412.00
2018-08-23T06:26:57.673Z,3528.00
2018-08-23T06:27:57.694Z,3528.00
2018-08-23T06:28:57.717Z,3484.00
2018-08-23T06:29:57.739Z,3380.00
2018-08-23T06:30:57.765Z,3248.00
2018-08-23T06:31:57.791Z,3120.00
2018-08-23T06:32:57.914Z,3084.00
2018-08-23T06:33:57.885Z,3060.00
2018-08-23T06:34:57.865Z,3120.00
2018-08-23T06:35:57.891Z,3152.00
2018-08-23T06:36:57.910Z,3208.00
2018-08-23T06:37:57.935Z,3200.00
2018-08-23T06:38:57.962Z,3136.00
2018-08-23T06:39:57.988Z,3092.00
2018-08-23T06:40:58.006Z,3036.00
2018-08-23T06:41:58.031Z,2964.00
2018-08-23T06:42:58.055Z,2888.00
2018-08-23T06:43:58.079Z,2832.00
2018-08-23T06:44:58.104Z,2836.00
2018-08-23T06:45:58.178Z,2880.00
2018-08-23T06:46:58.152Z,2872.00
2018-08-23T06:47:58.177Z,2916.00
2018-08-23T06:48:58.229Z,2916.00
2018-08-23T06:49:58.225Z,3020.00
2018-08-23T06:50:58.251Z,3060.00
2018-08-23T06:51:58.274Z,3144.00
2018-08-23T06:52:58.298Z,3208.00
2018-08-23T06:53:58.324Z,3244.00
2018-08-23T06:54:58.347Z,3216.00
2018-08-23T06:55:58.371Z,3176.00
2018-08-23T06:56:58.395Z,3192.00
2018-08-23T06:57:58.422Z,3176.00
2018-08-23T06:58:58.514Z,3116.00
2018-08-23T06:59:58.472Z,3096.00
2018-08-23T07:00:58.495Z,3048.00
2018-08-23T07:01:58.522Z,3088.00
2018-08-23T07:02:58.545Z,3116.00
2018-08-23T07:03:58.571Z,3164.00
2018-08-23T07:04:58.592Z,3216.00
2018-08-23T07:05:58.639Z,3236.00
2018-08-23T07:06:58.642Z,3248.00
2018-08-23T07:07:58.665Z,3248.00
2018-08-23T07:08:58.740Z,3200.00
2018-08-23T07:09:58.712Z,3216.00
2018-08-23T07:10:58.738Z,3268.00
2018-08-23T07:11:58.762Z,3256.00
2018-08-23T07:12:58.789Z,3336.00
2018-08-23T07:13:58.810Z,3364.00
2018-08-23T07:14:58.836Z,3400.00
2018-08-23T07:15:58.860Z,3404.00
2018-08-23T07:16:58.885Z,3372.00
2018-08-23T07:17:58.913Z,3424.00
2018-08-23T07:18:58.937Z,3436.00
2018-08-23T07:19:58.959Z,3404.00
2018-08-23T07:20:58.987Z,3380.00
2018-08-23T07:21:59.007Z,3420.00
2018-08-23T07:22:59.032Z,3432.00
2018-08-23T07:23:59.057Z,3528.00
2018-08-23T07:24:59.084Z,3460.00
2018-08-23T07:25:59.108Z,3492.00
2018-08-23T07:26:59.130Z,3492.00
2018-08-23T07:27:59.155Z,3516.00
2018-08-23T07:28:59.203Z,3556.00
2018-08-23T07:29:59.246Z,3544.00
2018-08-23T07:30:59.229Z,3572.00
2018-08-23T07:31:59.558Z,3564.00
2018-08-23T07:32:59.731Z,3588.00
2018-08-23T07:33:59.328Z,3640.00
2018-08-23T07:34:59.329Z,3576.00
2018-08-23T07:35:59.355Z,3636.00
2018-08-23T07:36:59.380Z,3612.00
2018-08-23T07:37:59.404Z,3616.00
2018-08-23T07:38:59.431Z,3592.00
2018-08-23T07:39:59.457Z,3560.00
2018-08-23T07:40:59.478Z,3684.00
2018-08-23T07:41:59.503Z,3644.00
2018-08-23T07:42:59.579Z,3596.00
2018-08-23T07:43:59.557Z,3716.00
2018-08-23T07:44:59.578Z,3660.00
2018-08-23T07:45:59.617Z,3684.00
2018-08-23T07:46:59.630Z,3876.00
2018-08-23T07:48:00.105Z,3852.00
2018-08-23T07:48:59.703Z,3748.00
2018-08-23T07:49:59.703Z,3824.00
2018-08-23T07:50:59.731Z,3724.00
2018-08-23T07:51:59.758Z,3740.00
2018-08-23T07:52:59.904Z,3728.00
2018-08-23T07:53:59.805Z,3904.00
2018-08-23T07:54:59.833Z,3756.00
2018-08-23T07:55:59.857Z,3800.00
2018-08-23T07:56:59.881Z,3924.00
2018-08-23T07:57:59.907Z,3892.00
2018-08-23T07:58:59.931Z,3892.00
2018-08-23T07:59:59.963Z,3768.00
2018-08-23T08:00:59.984Z,4104.00
2018-08-23T08:02:00.008Z,4204.00
2018-08-23T08:03:00.033Z,4036.00
2018-08-23T08:04:00.057Z,3992.00
2018-08-23T08:05:00.085Z,3936.00
2018-08-23T08:06:00.107Z,4112.00
2018-08-23T08:07:00.136Z,3844.00
2018-08-23T08:08:00.158Z,4288.00
2018-08-23T08:09:00.186Z,3528.00
2018-08-23T08:10:00.211Z,5084.00
2018-08-23T08:11:00.238Z,4996.00
2018-08-23T08:12:00.263Z,4532.00
2018-08-23T08:13:00.287Z,4956.00
2018-08-23T08:14:00.311Z,5040.00
2018-08-23T08:15:00.355Z,4592.00
2018-08-23T08:16:00.366Z,3732.00
2018-08-23T08:17:00.387Z,5004.00
2018-08-23T08:18:00.417Z,5076.00
2018-08-23T08:19:00.442Z,5336.00
2018-08-23T08:20:00.465Z,5064.00
2018-08-23T08:21:00.616Z,5068.00
2018-08-23T08:22:00.517Z,4880.00
2018-08-23T08:23:00.543Z,5208.00
2018-08-23T08:24:00.573Z,5304.00
2018-08-23T08:25:00.595Z,5344.00
2018-08-23T08:26:00.623Z,4940.00
2018-08-23T08:27:00.668Z,5452.00
2018-08-23T08:28:00.674Z,3736.00
2018-08-23T08:29:00.697Z,5708.00
2018-08-23T08:30:00.723Z,5348.00
2018-08-23T08:31:00.750Z,3392.00
2018-08-23T08:32:00.776Z,4660.00
2018-08-23T08:33:00.836Z,5628.00
2018-08-23T08:34:01.077Z,3112.00
2018-08-23T08:35:00.854Z,3076.00
2018-08-23T08:36:00.880Z,5872.00
2018-08-23T08:37:00.905Z,5644.00
2018-08-23T08:38:00.931Z,5428.00
2018-08-23T08:39:00.958Z,5528.00
2018-08-23T08:40:00.986Z,5892.00
2018-08-23T08:41:01.209Z,6200.00
2018-08-23T08:42:01.069Z,5928.00
2018-08-23T08:43:01.062Z,5664.00
2018-08-23T08:44:01.089Z,5632.00
2018-08-23T08:45:01.114Z,5780.00
2018-08-23T08:46:01.141Z,5632.00
2018-08-23T08:47:01.169Z,4980.00
2018-08-23T08:48:01.192Z,5848.00
2018-08-23T08:49:01.264Z,5736.00
2018-08-23T08:50:01.243Z,5284.00
2018-08-23T08:51:01.271Z,5340.00
2018-08-23T08:52:01.298Z,5536.00
2018-08-23T08:53:01.325Z,5816.00
2018-08-23T08:54:01.347Z,5924.00
2018-08-23T08:55:01.375Z,5784.00
2018-08-23T08:56:01.401Z,5768.00
2018-08-23T08:57:01.490Z,5828.00
2018-08-23T08:58:01.453Z,5720.00
2018-08-23T08:59:01.481Z,4864.00
2018-08-23T09:00:01.505Z,5476.00
2018-08-23T09:01:01.538Z,4080.00
2018-08-23T09:02:01.561Z,5648.00
2018-08-23T09:03:01.590Z,5928.00
2018-08-23T09:04:01.619Z,5924.00
2018-08-23T09:05:01.642Z,4968.00
2018-08-23T09:06:01.663Z,5832.00
2018-08-23T09:07:01.690Z,6312.00
2018-08-23T09:08:01.717Z,5656.00
2018-08-23T09:09:01.743Z,6064.00
2018-08-23T09:10:01.767Z,5924.00
2018-08-23T09:11:01.796Z,5960.00
2018-08-23T09:12:01.819Z,5856.00
2018-08-23T09:13:01.845Z,6008.00
2018-08-23T09:14:01.874Z,6024.00
2018-08-23T09:15:01.898Z,5492.00
2018-08-23T09:16:01.925Z,5812.00
2018-08-23T09:17:01.958Z,5816.00
2018-08-23T09:18:01.981Z,5892.00
2018-08-23T09:19:02.003Z,5888.00
2018-08-23T09:20:02.036Z,5904.00
2018-08-23T09:21:02.060Z,5656.00
2018-08-23T09:22:02.082Z,6152.00
2018-08-23T09:23:02.111Z,5848.00
2018-08-23T09:24:02.138Z,5892.00
2018-08-23T09:25:02.164Z,6012.00
2018-08-23T09:26:02.190Z,6048.00
2018-08-23T09:27:02.217Z,5744.00
2018-08-23T09:28:02.244Z,6068.00
2018-08-23T09:29:02.267Z,6020.00
2018-08-23T09:30:02.297Z,6312.00
2018-08-23T09:31:02.322Z,6488.00
2018-08-23T09:32:02.388Z,6184.00
2018-08-23T09:33:02.377Z,6124.00
2018-08-23T09:34:02.401Z,5788.00
2018-08-23T09:35:02.485Z,6168.00
2018-08-23T09:36:02.455Z,3828.00
2018-08-23T09:37:02.515Z,6296.00
2018-08-23T09:38:02.510Z,3660.00
2018-08-23T09:39:02.534Z,6152.00
2018-08-23T09:40:02.561Z,5956.00
2018-08-23T09:41:02.589Z,6120.00
2018-08-23T09:42:02.614Z,6112.00
2018-08-23T09:43:02.815Z,6340.00
2018-08-23T09:44:02.670Z,6536.00
2018-08-23T09:45:02.695Z,6552.00
2018-08-23T09:46:02.721Z,6644.00
2018-08-23T09:47:02.746Z,6732.00
2018-08-23T09:48:02.778Z,6788.00
2018-08-23T09:49:02.803Z,6500.00
2018-08-23T09:50:02.869Z,6488.00
2018-08-23T09:51:02.888Z,6308.00
2018-08-23T09:52:02.882Z,6544.00
2018-08-23T09:53:02.911Z,4916.00
2018-08-23T09:54:02.936Z,6340.00
2018-08-23T09:55:02.962Z,4484.00
2018-08-23T09:56:02.990Z,7076.00
2018-08-23T09:57:03.019Z,6444.00
2018-08-23T09:58:03.045Z,7412.00
2018-08-23T09:59:03.079Z,7460.00
2018-08-23T10:00:03.100Z,7104.00
2018-08-23T10:01:03.127Z,7356.00
2018-08-23T10:02:03.154Z,7596.00
2018-08-23T10:03:03.182Z,8052.00
2018-08-23T10:04:03.210Z,6956.00
2018-08-23T10:05:03.239Z,8396.00
2018-08-23T10:06:03.265Z,8128.00
2018-08-23T10:07:03.295Z,7652.00
2018-08-23T10:08:03.316Z,7188.00
2018-08-23T10:09:03.346Z,5528.00
2018-08-23T10:10:03.370Z,5096.00
2018-08-23T10:11:03.399Z,5052.00
2018-08-23T10:12:03.431Z,5244.00
2018-08-23T10:13:03.452Z,4988.00
2018-08-23T10:14:03.481Z,5000.00
2018-08-23T10:15:03.508Z,5288.00
2018-08-23T10:16:03.536Z,5380.00
2018-08-23T10:17:03.563Z,7316.00
2018-08-23T10:18:03.590Z,5968.00
2018-08-23T10:19:03.673Z,8096.00
2018-08-23T10:20:03.698Z,8360.00
2018-08-23T10:21:03.672Z,8636.00
2018-08-23T10:22:04.153Z,8552.00
2018-08-23T10:23:03.727Z,8220.00
2018-08-23T10:24:03.760Z,8204.00
2018-08-23T10:25:03.785Z,8116.00
2018-08-23T10:26:03.809Z,7968.00
2018-08-23T10:27:03.837Z,8116.00
2018-08-23T10:28:03.866Z,8052.00
2018-08-23T10:29:03.893Z,7440.00
2018-08-23T10:30:03.924Z,6876.00
2018-08-23T10:31:03.949Z,6572.00
2018-08-23T10:32:04.019Z,6720.00
2018-08-23T10:33:04.004Z,7232.00
2018-08-23T10:34:04.032Z,7544.00
2018-08-23T10:35:04.069Z,7976.00
2018-08-23T10:36:04.088Z,7876.00
2018-08-23T10:37:04.119Z,8108.00
2018-08-23T10:38:04.195Z,8292.00
2018-08-23T10:39:04.174Z,8312.00
2018-08-23T10:40:04.204Z,8496.00
2018-08-23T10:41:04.230Z,8108.00
2018-08-23T10:42:04.316Z,7896.00
2018-08-23T10:43:04.639Z,7980.00
2018-08-23T10:44:04.719Z,7552.00
2018-08-23T10:45:04.355Z,7168.00
2018-08-23T10:46:04.372Z,5876.00
2018-08-23T10:47:04.400Z,7212.00
2018-08-23T10:48:04.429Z,5804.00
2018-08-23T10:49:04.454Z,5620.00
2018-08-23T10:50:04.485Z,5304.00
2018-08-23T10:51:04.594Z,5064.00
2018-08-23T10:52:04.540Z,4864.00
2018-08-23T10:53:04.568Z,4668.00
2018-08-23T10:54:04.600Z,6340.00
2018-08-23T10:55:04.624Z,4392.00
2018-08-23T10:56:04.652Z,5656.00
2018-08-23T10:57:04.680Z,4136.00
2018-08-23T10:58:04.711Z,3944.00
2018-08-23T10:59:04.776Z,3924.00
2018-08-23T11:00:04.812Z,5624.00
2018-08-23T11:01:04.789Z,5904.00
2018-08-23T11:02:04.820Z,4508.00
2018-08-23T11:03:05.148Z,5916.00
2018-08-23T11:04:04.874Z,5476.00
2018-08-23T11:05:04.902Z,5772.00
2018-08-23T11:06:04.957Z,6320.00
2018-08-23T11:07:04.957Z,6144.00
2018-08-23T11:08:04.987Z,5996.00
2018-08-23T11:09:05.010Z,4752.00
2018-08-23T11:10:05.041Z,4572.00
2018-08-23T11:11:05.071Z,5408.00
2018-08-23T11:12:05.094Z,5516.00
2018-08-23T11:13:05.123Z,5792.00
2018-08-23T11:14:05.151Z,6332.00
2018-08-23T11:15:05.180Z,7312.00
2018-08-23T11:16:05.205Z,5784.00
2018-08-23T11:17:05.358Z,5144.00
2018-08-23T11:18:05.263Z,4884.00
2018-08-23T11:19:05.290Z,5140.00
2018-08-23T11:20:05.317Z,5132.00
2018-08-23T11:21:05.347Z,4976.00
2018-08-23T11:22:05.370Z,5128.00
2018-08-23T11:23:05.414Z,6616.00
2018-08-23T11:24:05.425Z,6828.00
2018-08-23T11:25:05.463Z,6564.00
2018-08-23T11:26:05.480Z,7344.00
2018-08-23T11:27:05.511Z,7972.00
2018-08-23T11:28:05.538Z,7172.00
2018-08-23T11:29:05.564Z,6916.00
2018-08-23T11:30:05.590Z,7692.00
2018-08-23T11:31:05.620Z,6584.00
2018-08-23T11:32:05.646Z,6900.00
2018-08-23T11:33:05.673Z,7448.00
2018-08-23T11:34:05.702Z,7680.00
2018-08-23T11:35:05.733Z,7072.00
2018-08-23T11:36:05.758Z,5904.00
2018-08-23T11:37:05.786Z,5784.00
2018-08-23T11:38:05.817Z,5640.00
2018-08-23T11:39:05.943Z,5544.00
2018-08-23T11:40:05.871Z,5856.00
2018-08-23T11:41:05.899Z,6108.00
2018-08-23T11:42:05.926Z,5616.00
2018-08-23T11:43:05.955Z,5360.00
2018-08-23T11:44:05.981Z,6660.00
2018-08-23T11:45:06.010Z,6108.00
2018-08-23T11:46:06.036Z,6044.00
2018-08-23T11:47:06.064Z,7240.00
2018-08-23T11:48:06.091Z,7092.00
2018-08-23T11:49:06.122Z,7296.00
2018-08-23T11:50:06.148Z,7232.00
2018-08-23T11:51:06.176Z,7196.00
2018-08-23T11:52:06.207Z,6916.00
2018-08-23T11:53:06.277Z,6788.00
2018-08-23T11:54:06.260Z,5716.00
2018-08-23T11:55:06.288Z,7164.00
2018-08-23T11:56:06.322Z,7756.00
2018-08-23T11:57:06.344Z,7328.00
2018-08-23T11:58:06.466Z,7512.00
2018-08-23T11:59:06.465Z,6164.00
2018-08-23T12:00:06.432Z,5936.00
2018-08-23T12:01:06.458Z,6332.00
2018-08-23T12:02:06.484Z,7436.00
2018-08-23T12:03:06.514Z,7848.00
2018-08-23T12:04:06.545Z,7112.00
2018-08-23T12:05:06.568Z,6360.00
2018-08-23T12:06:06.597Z,5968.00
2018-08-23T12:07:06.634Z,5836.00
2018-08-23T12:08:06.657Z,5636.00
2018-08-23T12:09:06.684Z,5308.00
2018-08-23T12:10:06.711Z,5040.00
2018-08-23T12:11:06.740Z,5092.00
2018-08-23T12:12:06.769Z,5276.00
2018-08-23T12:13:06.797Z,5148.00
2018-08-23T12:14:06.825Z,5092.00
2018-08-23T12:15:06.854Z,5280.00
2018-08-23T12:16:06.908Z,5288.00
2018-08-23T12:17:06.907Z,6052.00
2018-08-23T12:18:06.935Z,6152.00
2018-08-23T12:19:07.016Z,5984.00
2018-08-23T12:20:06.995Z,5880.00
2018-08-23T12:21:07.022Z,5860.00
2018-08-23T12:22:07.048Z,5296.00
2018-08-23T12:23:07.077Z,5600.00
2018-08-23T12:24:07.104Z,6856.00
2018-08-23T12:25:07.135Z,7204.00
2018-08-23T12:26:07.190Z,7460.00
2018-08-23T12:27:07.192Z,7576.00
2018-08-23T12:28:07.220Z,7656.00
2018-08-23T12:29:07.248Z,7904.00
2018-08-23T12:30:07.273Z,7844.00
2018-08-23T12:31:07.308Z,7516.00